Time;durP1;ratioP1;P1;durP2;ratioP2;P2;SDS_P1;SDS_P2;PMS_P1;PMS_P2;Temp;Humidity;BMP_temperature;BMP_pressure;BME280_temperature;BME280_humidity;BME280_pressure;Samples;Min_cycle;Max_cycle;Signal;HPM_P1;HPM_P2
2021/09/26 00:00:23;;;;;;;0.70;0.70;;;;;;;16.98;100.00;-21142.56;6275828;22;20364;-72
2021/09/26 00:02:50;;;;;;;1.47;1.20;;;;;;;16.95;100.00;-21141.72;6249511;22;20396;-72
2021/09/26 00:05:19;;;;;;;0.70;0.70;;;;;;;16.99;100.00;-21142.81;6249477;22;20387;-71
2021/09/26 00:07:49;;;;;;;0.80;0.80;;;;;;;16.95;100.00;-21141.88;6250974;22;20420;-71
2021/09/26 00:10:16;;;;;;;0.70;0.60;;;;;;;16.95;100.00;-21141.88;6277398;22;20485;-71
2021/09/26 00:12:44;;;;;;;0.70;0.70;;;;;;;17.03;100.00;-21143.91;6251139;22;20885;-71
2021/09/26 00:15:14;;;;;;;0.83;0.83;;;;;;;16.98;100.00;-21142.56;6278222;22;20877;-72
2021/09/26 00:17:42;;;;;;;0.70;0.70;;;;;;;16.95;100.00;-21141.72;6250730;22;20451;-72
2021/09/26 00:20:09;;;;;;;0.70;0.60;;;;;;;16.97;100.00;-21142.41;6250788;22;20780;-72
2021/09/26 00:22:38;;;;;;;0.70;0.60;;;;;;;17.00;100.00;-21143.22;6278447;22;20412;-71
2021/09/26 00:25:06;;;;;;;0.70;0.60;;;;;;;17.02;100.00;-21143.66;6278543;22;20376;-71
2021/09/26 00:27:33;;;;;;;0.70;0.70;;;;;;;17.07;100.00;-21145.03;6277929;22;20427;-72
2021/09/26 00:30:01;;;;;;;0.70;0.60;;;;;;;17.09;100.00;-21145.56;6277967;22;20501;-71
2021/09/26 00:32:28;;;;;;;0.73;0.70;;;;;;;17.13;100.00;-21146.66;6277513;22;20888;-71
2021/09/26 00:34:55;;;;;;;1.07;0.83;;;;;;;17.20;100.00;-21148.59;6250800;22;20485;-71
2021/09/26 00:37:23;;;;;;;0.70;0.70;;;;;;;17.20;100.00;-21148.59;6277819;22;20391;-72
2021/09/26 00:40:00;;;;;;;0.70;0.67;;;;;;;17.13;100.00;-21146.66;6251863;22;20472;-72
2021/09/26 00:42:35;;;;;;;0.70;0.60;;;;;;;17.16;100.00;-21147.50;6250559;22;20411;-71
2021/09/26 00:45:07;;;;;;;1.03;0.93;;;;;;;17.16;100.00;-21147.50;6251553;22;20415;-72
2021/09/26 00:47:39;;;;;;;0.70;0.60;;;;;;;17.18;100.00;-21148.03;6251566;22;20393;-71
2021/09/26 00:50:16;;;;;;;0.70;0.67;;;;;;;17.22;100.00;-21149.00;6276568;22;20418;-71
2021/09/26 00:52:46;;;;;;;0.70;0.70;;;;;;;17.25;100.00;-21149.97;6278187;22;20440;-71
2021/09/26 00:55:22;;;;;;;1.10;1.00;;;;;;;17.24;100.00;-21149.69;6250596;22;20857;-71
2021/09/26 00:57:54;;;;;;;0.70;0.60;;;;;;;17.35;100.00;-21152.69;6251267;22;20363;-72
2021/09/26 01:00:32;;;;;;;0.70;0.70;;;;;;;17.39;100.00;-21153.78;6277807;22;20422;-71
2021/09/26 01:03:01;;;;;;;0.70;0.70;;;;;;;17.32;100.00;-21151.75;6250303;22;20425;-71
2021/09/26 01:05:34;;;;;;;0.70;0.70;;;;;;;17.29;100.00;-21151.06;6250545;22;20473;-72
2021/09/26 01:08:19;;;;;;;0.80;0.80;;;;;;;17.22;100.00;-21149.13;6277424;22;20481;-71
2021/09/26 01:11:05;;;;;;;0.70;0.70;;;;;;;17.06;100.00;-21144.88;6250838;22;20815;-71
2021/09/26 01:13:52;;;;;;;0.70;0.60;;;;;;;17.03;100.00;-21144.06;6277669;22;20482;-71
2021/09/26 01:16:31;;;;;;;0.70;0.60;;;;;;;17.00;100.00;-21143.09;6251379;22;20392;-72
2021/09/26 01:19:20;;;;;;;0.93;0.93;;;;;;;16.97;100.00;-21142.28;6250818;22;20419;-72
2021/09/26 01:22:02;;;;;;;0.70;0.70;;;;;;;16.99;100.00;-21142.81;6251726;22;20390;-71
2021/09/26 01:24:56;;;;;;;0.70;0.70;;;;;;;17.05;100.00;-21144.47;6250595;22;20432;-71
2021/09/26 01:28:05;;;;;;;0.70;0.70;;;;;;;17.09;100.00;-21145.56;6249692;22;20421;-72
2021/09/26 01:30:41;;;;;;;1.70;1.60;;;;;;;17.18;100.00;-21148.03;6269120;22;20471;-71
2021/09/26 01:33:20;;;;;;;0.70;0.70;;;;;;;17.26;100.00;-21150.22;6251067;22;20373;-72
2021/09/26 01:36:05;;;;;;;0.70;0.60;;;;;;;17.32;100.00;-21151.88;6227082;22;20416;-71
2021/09/26 01:38:42;;;;;;;0.80;0.80;;;;;;;17.36;100.00;-21152.97;6250727;22;20410;-71
2021/09/26 01:41:21;;;;;;;0.70;0.70;;;;;;;17.38;100.00;-21153.53;6225399;22;20418;-71
2021/09/26 01:43:54;;;;;;;0.70;0.60;;;;;;;17.42;100.00;-21154.34;6250483;22;20696;-72
2021/09/26 01:46:28;;;;;;;0.80;0.70;;;;;;;17.43;100.00;-21154.63;6225209;22;20415;-71
2021/09/26 01:49:02;;;;;;;0.80;0.70;;;;;;;17.52;100.00;-21157.09;6277155;22;20377;-71
2021/09/26 01:51:38;;;;;;;0.80;0.80;;;;;;;17.63;100.00;-21160.09;6276869;22;20470;-72
2021/09/26 01:54:10;;;;;;;0.70;0.70;;;;;;;17.68;100.00;-21161.34;6277455;22;20406;-73
2021/09/26 01:56:43;;;;;;;0.77;0.70;;;;;;;17.69;100.00;-21161.75;6277048;22;20365;-72
2021/09/26 01:59:12;;;;;;;0.70;0.70;;;;;;;17.75;100.00;-21163.41;6277150;22;20881;-71
2021/09/26 02:01:41;;;;;;;0.80;0.70;;;;;;;17.74;100.00;-21163.13;6250007;22;20476;-72
2021/09/26 02:04:09;;;;;;;0.70;0.60;;;;;;;17.68;100.00;-21161.47;6277288;22;20394;-72
2021/09/26 02:06:38;;;;;;;0.80;0.70;;;;;;;17.70;100.00;-21162.03;6225195;22;20794;-71
2021/09/26 02:09:06;;;;;;;0.70;0.60;;;;;;;17.76;100.00;-21163.66;6250266;22;20463;-72
2021/09/26 02:11:35;;;;;;;1.13;1.03;;;;;;;17.82;100.00;-21165.31;6250337;22;20438;-72
2021/09/26 02:14:03;;;;;;;0.70;0.60;;;;;;;17.81;100.00;-21165.03;6249622;22;20434;-71
2021/09/26 02:16:30;;;;;;;0.90;0.90;;;;;;;17.80;100.00;-21164.63;6249697;22;20390;-71
2021/09/26 02:18:59;;;;;;;0.90;0.80;;;;;;;17.79;100.00;-21164.50;6224203;22;20399;-71
2021/09/26 02:21:29;;;;;;;1.47;0.80;;;;;;;17.82;100.00;-21165.31;6276983;22;20385;-72
2021/09/26 02:23:56;;;;;;;0.70;0.70;;;;;;;17.79;100.00;-21164.50;6277059;22;20403;-72
2021/09/26 02:26:23;;;;;;;0.80;0.80;;;;;;;17.90;100.00;-21167.38;6250426;22;20470;-71
2021/09/26 02:28:51;;;;;;;0.90;0.90;;;;;;;17.89;100.00;-21166.97;6249737;22;20406;-72
2021/09/26 02:31:21;;;;;;;1.00;0.90;;;;;;;17.82;100.00;-21165.19;6276765;22;20468;-72
2021/09/26 02:33:49;;;;;;;0.70;0.60;;;;;;;17.81;100.00;-21165.03;6276136;22;20391;-72
2021/09/26 02:36:18;;;;;;;0.80;0.70;;;;;;;17.79;100.00;-21164.34;6276113;22;20783;-72
2021/09/26 02:38:46;;;;;;;0.70;0.70;;;;;;;17.77;100.00;-21163.94;6276494;22;20403;-71
2021/09/26 02:41:26;;;;;;;0.87;0.87;;;;;;;17.84;100.00;-21165.88;6277045;22;20363;-71
2021/09/26 02:44:04;;;;;;;0.80;0.70;;;;;;;17.84;100.00;-21165.88;6250698;22;20370;-71
2021/09/26 02:46:35;;;;;;;0.70;0.67;;;;;;;17.92;100.00;-21167.91;6250168;22;20373;-71
2021/09/26 02:49:04;;;;;;;0.73;0.63;;;;;;;17.90;100.00;-21167.38;6276745;22;20368;-71
2021/09/26 02:51:34;;;;;;;1.10;1.00;;;;;;;17.84;100.00;-21165.72;6249171;22;20493;-72
2021/09/26 02:54:03;;;;;;;0.70;0.60;;;;;;;17.79;100.00;-21164.50;6276585;22;20442;-72
2021/09/26 02:56:31;;;;;;;0.77;0.70;;;;;;;17.90;100.00;-21167.25;6224212;22;20853;-72
2021/09/26 02:59:00;;;;;;;0.70;0.60;;;;;;;17.93;100.00;-21168.19;6276644;22;20386;-72
2021/09/26 03:01:27;;;;;;;0.70;0.70;;;;;;;17.94;100.00;-21168.34;6249155;22;20489;-72
2021/09/26 03:04:03;;;;;;;2.23;1.27;;;;;;;18.00;100.00;-21169.97;6249686;22;20385;-71
2021/09/26 03:06:31;;;;;;;0.80;0.80;;;;;;;18.03;100.00;-21170.78;6276635;22;20393;-72
2021/09/26 03:08:58;;;;;;;0.80;0.70;;;;;;;17.98;100.00;-21169.44;6249081;22;20408;-73
2021/09/26 03:11:26;;;;;;;0.93;0.87;;;;;;;17.98;100.00;-21169.56;6276581;22;20429;-72
2021/09/26 03:13:56;;;;;;;0.70;0.70;;;;;;;18.01;100.00;-21170.25;6276136;22;21059;-72
2021/09/26 03:16:23;;;;;;;0.70;0.60;;;;;;;17.88;100.00;-21166.81;6276603;22;20743;-72
2021/09/26 03:18:50;;;;;;;0.70;0.60;;;;;;;17.78;100.00;-21164.22;6224645;22;20433;-71
2021/09/26 03:21:16;;;;;;;0.80;0.70;;;;;;;17.52;100.00;-21157.09;6249929;22;20436;-71
2021/09/26 03:23:45;;;;;;;0.70;0.60;;;;;;;17.39;100.00;-21153.78;6249880;22;20425;-71
2021/09/26 03:26:12;;;;;;;1.17;1.10;;;;;;;17.20;100.00;-21148.59;6276365;22;20452;-72
2021/09/26 03:28:39;;;;;;;1.13;0.90;;;;;;;17.17;100.00;-21147.75;6276677;22;20708;-71
2021/09/26 03:31:08;;;;;;;0.83;0.83;;;;;;;17.02;100.00;-21143.66;6248550;22;20919;-72
2021/09/26 03:33:35;;;;;;;0.80;0.80;;;;;;;17.00;100.00;-21143.09;6224146;22;20402;-72
2021/09/26 03:36:03;;;;;;;0.70;0.70;;;;;;;16.90;100.00;-21140.63;6275490;22;20835;-72
2021/09/26 03:38:32;;;;;;;0.70;0.70;;;;;;;16.82;100.00;-21138.44;6249369;22;20430;-71
2021/09/26 03:41:01;;;;;;;0.70;0.70;;;;;;;16.83;100.00;-21138.72;6276824;22;20845;-71
2021/09/26 03:43:30;;;;;;;0.80;0.80;;;;;;;16.85;100.00;-21139.13;6278544;22;20842;-72
2021/09/26 03:45:57;;;;;;;0.93;0.90;;;;;;;16.80;100.00;-21137.88;6277198;22;20381;-72
2021/09/26 03:48:24;;;;;;;1.10;1.07;;;;;;;16.76;100.00;-21136.78;6278544;22;20378;-72
2021/09/26 03:50:51;;;;;;;0.70;0.63;;;;;;;16.77;100.00;-21137.06;6277700;22;20502;-72
2021/09/26 03:53:19;;;;;;;0.80;0.70;;;;;;;16.82;100.00;-21138.44;6226247;22;20428;-72
2021/09/26 03:55:46;;;;;;;0.70;0.70;;;;;;;16.85;100.00;-21139.13;6278474;22;20441;-71
2021/09/26 03:58:15;;;;;;;1.07;0.97;;;;;;;16.88;100.00;-21140.06;6278731;22;20456;-71
2021/09/26 04:00:42;;;;;;;0.70;0.60;;;;;;;16.90;100.00;-21140.63;6278308;22;20368;-71
2021/09/26 04:03:09;;;;;;;0.80;0.80;;;;;;;16.89;100.00;-21140.22;6277538;22;20374;-72
2021/09/26 04:05:39;;;;;;;0.70;0.60;;;;;;;16.82;100.00;-21138.44;6278055;22;20427;-71
2021/09/26 04:08:06;;;;;;;0.70;0.70;;;;;;;16.74;100.00;-21136.25;6276935;22;20412;-71
2021/09/26 04:10:32;;;;;;;0.93;0.93;;;;;;;16.74;100.00;-20934.53;6251108;22;20488;-72
2021/09/26 04:13:00;;;;;;;0.70;0.70;;;;;;;16.75;100.00;-19889.94;6278297;22;20396;-71
2021/09/26 04:15:28;;;;;;;0.80;0.80;;;;;;;16.72;100.00;-18322.88;6251255;22;20411;-72
2021/09/26 04:17:55;;;;;;;1.20;1.10;;;;;;;16.71;100.00;-15625.75;6278287;22;20397;-71
2021/09/26 04:20:22;;;;;;;0.70;0.70;;;;;;;16.69;100.00;-12216.56;6250634;22;20380;-71
2021/09/26 04:22:50;;;;;;;0.80;0.80;;;;;;;16.67;100.00;-7722.44;6251945;22;20492;-71
2021/09/26 04:25:17;;;;;;;0.80;0.70;;;;;;;16.63;100.00;-2805.38;6251185;22;20416;-71
2021/09/26 04:27:44;;;;;;;0.70;0.70;;;;;;;16.61;100.00;1858.84;6277681;22;20387;-72
2021/09/26 04:30:12;;;;;;;0.70;0.60;;;;;;;16.61;100.00;5624.66;6278317;22;20416;-71
2021/09/26 04:32:41;;;;;;;0.70;0.60;;;;;;;16.61;100.00;8029.56;6276979;22;20422;-72
2021/09/26 04:35:08;;;;;;;0.77;0.70;;;;;;;16.58;100.00;9761.72;6277213;22;20373;-72
2021/09/26 04:37:35;;;;;;;1.17;0.90;;;;;;;16.55;100.00;11172.78;6251346;22;20719;-71
2021/09/26 04:40:03;;;;;;;6.23;1.63;;;;;;;16.49;100.00;11263.06;6251406;22;20828;-71
2021/09/26 04:42:30;;;;;;;0.70;0.60;;;;;;;16.45;100.00;11208.44;6278063;22;20373;-71
2021/09/26 04:44:57;;;;;;;0.70;0.70;;;;;;;16.37;100.00;10798.13;6278184;22;20444;-70
2021/09/26 04:47:23;;;;;;;0.70;0.70;;;;;;;16.30;100.00;10301.44;6250323;22;20376;-71
2021/09/26 04:49:52;;;;;;;0.97;0.90;;;;;;;16.23;100.00;10133.94;6277472;22;20442;-71
2021/09/26 04:52:19;;;;;;;0.80;0.70;;;;;;;16.22;100.00;9720.44;6250497;22;20438;-71
2021/09/26 04:54:47;;;;;;;0.70;0.70;;;;;;;16.21;100.00;8931.97;6250998;22;20473;-71
2021/09/26 04:57:15;;;;;;;0.70;0.60;;;;;;;16.19;100.00;8100.47;6277649;22;20405;-70
2021/09/26 04:59:41;;;;;;;0.80;0.80;;;;;;;16.19;100.00;7136.78;6277967;22;20387;-71
2021/09/26 05:02:08;;;;;;;0.73;0.70;;;;;;;16.19;100.00;6071.63;6250239;22;20384;-71
2021/09/26 05:04:35;;;;;;;0.77;0.70;;;;;;;16.23;100.00;5267.03;6277109;22;20461;-71
2021/09/26 05:07:04;;;;;;;0.70;0.70;;;;;;;16.23;100.00;3980.84;6277825;22;20767;-71
2021/09/26 05:09:31;;;;;;;0.70;0.70;;;;;;;16.24;100.00;3031.25;6277777;22;20406;-71
2021/09/26 05:11:58;;;;;;;0.70;0.63;;;;;;;16.26;100.00;1929.22;6277404;22;20411;-70
2021/09/26 05:14:24;;;;;;;0.90;0.90;;;;;;;16.28;100.00;692.75;6277193;22;20388;-71
2021/09/26 05:16:52;;;;;;;1.03;1.03;;;;;;;16.30;100.00;-484.91;6250657;22;20402;-71
2021/09/26 05:19:19;;;;;;;0.77;0.73;;;;;;;16.35;100.00;-1555.22;6250734;22;20512;-70
2021/09/26 05:21:46;;;;;;;1.10;1.00;;;;;;;16.33;100.00;-2208.72;6277509;22;20361;-70
2021/09/26 05:24:14;;;;;;;0.80;0.80;;;;;;;16.40;100.00;-3009.25;6277120;22;20495;-71
2021/09/26 05:26:42;;;;;;;0.80;0.80;;;;;;;16.41;100.00;-3393.03;6277679;22;20477;-71
2021/09/26 05:29:09;;;;;;;0.70;0.60;;;;;;;16.46;100.00;-3774.22;6250250;22;20400;-71
2021/09/26 05:31:38;;;;;;;0.70;0.70;;;;;;;16.50;100.00;-4135.09;6276001;22;20421;-71
2021/09/26 05:34:05;;;;;;;1.33;1.10;;;;;;;16.51;100.00;-4678.88;6277628;22;20831;-71
2021/09/26 05:36:32;;;;;;;0.70;0.70;;;;;;;16.58;100.00;-4892.38;6277385;22;20698;-71
2021/09/26 05:38:59;;;;;;;0.77;0.70;;;;;;;16.67;100.00;-4577.34;6250497;22;20711;-70
2021/09/26 05:41:27;;;;;;;0.70;0.60;;;;;;;16.74;100.00;-4447.72;6276305;22;20368;-71
2021/09/26 05:43:54;;;;;;;0.70;0.67;;;;;;;16.78;100.00;-4099.44;6277417;22;20835;-71
2021/09/26 05:46:21;;;;;;;0.70;0.70;;;;;;;16.81;100.00;-4005.34;6250046;22;20398;-71
2021/09/26 05:48:48;;;;;;;0.70;0.60;;;;;;;16.82;100.00;-3967.19;6250464;22;20408;-71
2021/09/26 05:51:17;;;;;;;0.80;0.80;;;;;;;16.84;100.00;-3781.56;6249927;22;20435;-71
2021/09/26 05:53:44;;;;;;;0.70;0.60;;;;;;;16.83;100.00;-3885.81;6224869;22;20482;-71
2021/09/26 05:56:12;;;;;;;0.70;0.70;;;;;;;16.83;100.00;-3730.69;6250631;22;20367;-71
2021/09/26 05:58:40;;;;;;;0.70;0.60;;;;;;;16.83;100.00;-3771.38;6276847;22;20371;-72
2021/09/26 06:01:07;;;;;;;1.07;1.00;;;;;;;16.82;100.00;-3974.84;6250190;22;20423;-71
2021/09/26 06:03:34;;;;;;;0.70;0.63;;;;;;;16.88;100.00;-3977.34;6276596;22;20408;-70
2021/09/26 06:06:01;;;;;;;0.80;0.80;;;;;;;17.01;100.00;-3789.06;6276740;22;20391;-71
2021/09/26 06:08:28;;;;;;;0.90;0.80;;;;;;;17.13;100.00;-3437.84;6276967;22;20886;-71
2021/09/26 06:10:55;;;;;;;0.80;0.70;;;;;;;17.28;100.00;-2982.06;6250198;22;20400;-70
2021/09/26 06:13:22;;;;;;;0.70;0.67;;;;;;;17.40;100.00;-2658.47;6277167;22;20449;-71
2021/09/26 06:15:51;;;;;;;0.93;0.93;;;;;;;17.50;100.00;-2179.44;6276984;22;20392;-71
2021/09/26 06:18:19;;;;;;;0.80;0.70;;;;;;;17.52;100.00;-1700.50;6276402;22;20400;-71
2021/09/26 06:20:46;;;;;;;0.70;0.60;;;;;;;17.60;100.00;-1142.16;6276367;22;20568;-71
2021/09/26 06:23:15;;;;;;;0.70;0.70;;;;;;;17.63;100.00;-578.78;6248873;22;20434;-71
2021/09/26 06:25:42;;;;;;;0.70;0.60;;;;;;;17.73;100.00;-914.66;6224646;22;20394;-71
2021/09/26 06:28:09;;;;;;;0.70;0.60;;;;;;;17.82;100.00;-924.34;6249453;22;20386;-71
2021/09/26 06:30:37;;;;;;;0.80;0.70;;;;;;;17.98;100.00;-1441.09;6249428;22;20448;-71
2021/09/26 06:33:05;;;;;;;0.70;0.70;;;;;;;18.17;100.00;-2722.75;6276652;22;20418;-71
2021/09/26 06:35:33;;;;;;;0.70;0.70;;;;;;;18.23;100.00;-4389.53;6276127;22;20374;-71
2021/09/26 06:38:00;;;;;;;0.90;0.90;;;;;;;18.33;100.00;-6784.31;6249794;22;20421;-71
2021/09/26 06:40:27;;;;;;;0.70;0.70;;;;;;;18.40;100.00;-9854.81;6276545;22;20461;-71
2021/09/26 06:42:54;;;;;;;0.70;0.70;;;;;;;18.41;100.00;-13293.38;6249368;22;20382;-71
2021/09/26 06:45:21;;;;;;;0.70;0.70;;;;;;;18.33;100.00;-17232.03;6276960;22;20841;-71
2021/09/26 06:47:48;;;;;;;0.70;0.70;;;;;;;18.31;100.00;-19870.56;6276739;22;20445;-71
2021/09/26 06:50:16;;;;;;;0.80;0.80;;;;;;;18.32;100.00;-21161.63;6276582;22;20858;-71
2021/09/26 06:52:43;;;;;;;0.70;0.67;;;;;;;18.40;100.00;-21180.66;6276552;22;20832;-70
2021/09/26 06:55:11;;;;;;;0.87;0.87;;;;;;;18.42;100.00;-21181.34;6276102;22;20876;-71
2021/09/26 06:57:38;;;;;;;0.70;0.60;;;;;;;18.42;100.00;-21181.34;6276863;22;20852;-70
2021/09/26 07:00:06;;;;;;;0.70;0.70;;;;;;;18.42;100.00;-21181.34;6249468;22;20723;-72
2021/09/26 07:02:34;;;;;;;0.80;0.70;;;;;;;18.48;100.00;-21182.84;6276075;22;20386;-70
2021/09/26 07:05:01;;;;;;;0.70;0.70;;;;;;;18.52;100.00;-21183.94;6276740;22;20878;-70
2021/09/26 07:07:29;;;;;;;0.70;0.70;;;;;;;18.55;100.00;-21184.75;6276480;22;20391;-71
2021/09/26 07:09:56;;;;;;;0.70;0.70;;;;;;;18.58;100.00;-21185.72;6276403;22;20451;-71
2021/09/26 07:12:25;;;;;;;0.80;0.80;;;;;;;18.67;100.00;-21188.06;6276535;22;20732;-70
2021/09/26 07:14:52;;;;;;;0.70;0.60;;;;;;;18.73;100.00;-21189.69;6250301;22;20386;-71
2021/09/26 07:17:22;;;;;;;0.83;0.83;;;;;;;18.72;100.00;-21189.44;6275769;22;20416;-71
2021/09/26 07:19:49;;;;;;;0.80;0.80;;;;;;;18.80;100.00;-21191.47;6278165;22;20414;-72
2021/09/26 07:22:19;;;;;;;1.13;1.03;;;;;;;18.85;100.00;-21192.72;6276075;22;20392;-72
2021/09/26 07:24:48;;;;;;;0.70;0.70;;;;;;;18.90;100.00;-21194.06;6249926;22;20723;-71
2021/09/26 07:27:17;;;;;;;1.17;1.10;;;;;;;18.98;100.00;-21196.25;6248841;22;20371;-71
2021/09/26 07:29:45;;;;;;;1.00;0.90;;;;;;;19.02;100.00;-21197.34;6249174;22;20381;-72
2021/09/26 07:32:12;;;;;;;0.70;0.67;;;;;;;19.13;100.00;-21200.22;6276010;22;20482;-71
2021/09/26 07:34:40;;;;;;;0.70;0.70;;;;;;;19.21;100.00;-21202.41;6249325;22;20407;-72
2021/09/26 07:37:08;;;;;;;0.70;0.63;;;;;;;19.25;100.00;-21203.66;6279742;22;20445;-71
2021/09/26 07:39:35;;;;;;;0.70;0.70;;;;;;;19.34;100.00;-21205.84;6248401;22;20408;-71
2021/09/26 07:42:04;;;;;;;0.77;0.70;;;;;;;19.52;100.00;-21210.75;6275118;22;20440;-71
2021/09/26 07:44:37;;;;;;;1.13;1.03;;;;;;;19.65;100.00;-21214.31;6275469;22;20700;-71
2021/09/26 07:47:04;;;;;;;0.70;0.60;;;;;;;19.83;100.00;-21219.09;6275272;22;20428;-72
2021/09/26 07:49:31;;;;;;;0.90;0.90;;;;;;;19.93;100.00;-21221.69;6275197;22;20375;-70
2021/09/26 07:51:58;;;;;;;0.70;0.60;;;;;;;19.97;100.00;-21222.78;6280776;22;20950;-74
2021/09/26 07:54:25;;;;;;;0.80;0.80;;;;;;;20.26;100.00;-21230.72;6275568;22;20406;-72
2021/09/26 07:56:52;;;;;;;0.70;0.70;;;;;;;20.47;100.00;-21236.19;6224557;22;20484;-72
2021/09/26 07:59:20;;;;;;;0.80;0.70;;;;;;;20.56;100.00;-21238.50;6248177;22;20418;-71
2021/09/26 08:01:48;;;;;;;0.77;0.70;;;;;;;20.87;100.00;-21246.84;6276401;22;20458;-72
2021/09/26 08:04:15;;;;;;;2.53;1.87;;;;;;;21.17;100.00;-21255.03;6275768;22;20372;-71
2021/09/26 08:06:45;;;;;;;0.80;0.70;;;;;;;21.12;100.00;-21253.50;6248638;22;20770;-72
2021/09/26 08:09:13;;;;;;;0.70;0.60;;;;;;;21.20;100.00;-21255.84;6249816;22;20457;-72
2021/09/26 08:11:39;;;;;;;0.83;0.83;;;;;;;21.53;100.00;-21264.56;6250531;22;20346;-70
2021/09/26 08:14:06;;;;;;;0.80;0.70;;;;;;;21.76;100.00;-21270.69;6275806;22;20692;-71
2021/09/26 08:16:36;;;;;;;0.80;0.70;;;;;;;21.61;100.00;-21266.75;6275831;22;20346;-70
2021/09/26 08:19:04;;;;;;;0.70;0.60;;;;;;;22.22;100.00;-21282.84;6276315;22;20408;-71
2021/09/26 08:21:33;;;;;;;1.00;0.90;;;;;;;22.85;100.00;-21299.84;6249300;22;20364;-71
2021/09/26 08:24:01;;;;;;;0.80;0.77;;;;;;;23.15;100.00;-21307.75;6275876;22;20442;-70
2021/09/26 08:26:28;;;;;;;0.80;0.70;;;;;;;23.91;100.00;-21328.00;6275917;22;20444;-71
2021/09/26 08:28:55;;;;;;;1.00;0.70;;;;;;;23.55;100.00;-21318.47;6277733;22;20368;-71
2021/09/26 08:31:22;;;;;;;0.70;0.60;;;;;;;23.49;100.00;-21316.72;6277599;22;20861;-70
2021/09/26 08:33:51;;;;;;;0.70;0.70;;;;;;;24.12;100.00;-21333.56;6277416;22;20417;-70
2021/09/26 08:36:18;;;;;;;0.80;0.70;;;;;;;24.23;100.00;-21336.41;6277460;22;20496;-71
2021/09/26 08:38:46;;;;;;;2.07;1.87;;;;;;;24.72;100.00;-21349.44;6277617;22;20398;-71
2021/09/26 08:41:16;;;;;;;0.80;0.70;;;;;;;25.14;100.00;-21360.56;6251050;22;20368;-71
2021/09/26 08:43:46;;;;;;;0.80;0.80;;;;;;;25.58;100.00;-21372.25;6226067;22;20395;-70
2021/09/26 08:46:17;;;;;;;0.70;0.60;;;;;;;25.61;100.00;-21373.19;6226219;22;20460;-71
2021/09/26 08:48:46;;;;;;;1.00;0.90;;;;;;;25.39;100.00;-21367.34;6250588;22;20399;-71
2021/09/26 08:51:15;;;;;;;0.70;0.60;;;;;;;25.22;100.00;-21362.75;6277502;22;20415;-70
2021/09/26 08:53:44;;;;;;;0.80;0.80;;;;;;;26.09;100.00;-21385.91;6251340;22;20757;-71
2021/09/26 08:56:14;;;;;;;0.70;0.50;;;;;;;26.23;100.00;-21389.56;6277749;22;20378;-71
2021/09/26 08:58:41;;;;;;;0.70;0.60;;;;;;;26.94;100.00;-21408.38;6250402;22;20426;-71
2021/09/26 09:01:08;;;;;;;0.70;0.60;;;;;;;27.01;100.00;-21410.28;6277726;22;20375;-71
2021/09/26 09:03:38;;;;;;;0.70;0.50;;;;;;;27.01;100.00;-21410.16;6277393;22;20372;-71
2021/09/26 09:06:05;;;;;;;1.97;1.00;;;;;;;26.97;100.00;-21409.19;6277242;22;20387;-71
2021/09/26 09:08:39;;;;;;;0.70;0.50;;;;;;;27.31;100.00;-21418.25;6277333;22;20453;-71
2021/09/26 09:11:07;;;;;;;0.70;0.50;;;;;;;27.25;100.00;-21416.63;6277746;22;20375;-71
2021/09/26 09:13:36;;;;;;;0.70;0.50;;;;;;;27.53;100.00;-21423.94;6250443;22;20459;-72
2021/09/26 09:16:08;;;;;;;0.73;0.57;;;;;;;27.37;100.00;-21419.88;6250700;22;20396;-71
2021/09/26 09:18:42;;;;;;;0.80;0.60;;;;;;;27.87;100.00;-21432.97;6250654;22;20446;-71
2021/09/26 09:21:20;;;;;;;0.70;0.50;;;;;;;28.02;100.00;-21437.03;6227908;22;20413;-72
2021/09/26 09:23:50;;;;;;;0.70;0.50;;;;;;;27.76;100.00;-21430.16;6283069;22;20581;-73
2021/09/26 09:26:34;;;;;;;0.80;0.70;;;;;;;28.78;100.00;-21457.13;6250327;22;20406;-72
2021/09/26 09:29:01;;;;;;;0.70;0.60;;;;;;;28.51;100.00;-21449.88;6277252;22;20410;-72
2021/09/26 09:31:31;;;;;;;0.80;0.70;;;;;;;28.00;100.00;-21436.38;6251988;22;20426;-71
2021/09/26 09:34:04;;;;;;;0.70;0.50;;;;;;;28.33;100.00;-21445.28;6250587;22;20434;-72
2021/09/26 09:36:33;;;;;;;1.00;0.60;;;;;;;28.97;100.00;-21462.13;6225150;22;20399;-72
2021/09/26 09:39:09;;;;;;;0.97;0.67;;;;;;;28.55;100.00;-21450.94;6277112;22;20402;-71
2021/09/26 09:41:38;;;;;;;0.90;0.70;;;;;;;29.02;100.00;-21463.34;6278000;22;20378;-70
2021/09/26 09:44:07;;;;;;;0.80;0.70;;;;;;;28.58;100.00;-21451.75;6277125;22;20742;-72
2021/09/26 09:46:37;;;;;;;0.70;0.50;;;;;;;28.22;100.00;-21442.31;6250553;22;20489;-72
2021/09/26 09:49:10;;;;;;;0.80;0.60;;;;;;;28.39;100.00;-21446.75;6249726;22;20403;-73
2021/09/26 09:51:37;;;;;;;0.80;0.70;;;;;;;27.78;100.00;-21430.56;6250312;22;20813;-73
2021/09/26 09:54:08;;;;;;;1.30;0.93;;;;;;;28.63;100.00;-21453.09;6276512;22;20430;-73
2021/09/26 09:56:44;;;;;;;0.70;0.50;;;;;;;28.69;100.00;-21454.72;6277712;22;20399;-73
2021/09/26 09:59:13;;;;;;;0.70;0.50;;;;;;;28.00;100.00;-21436.50;6250037;22;20405;-73
2021/09/26 10:01:43;;;;;;;0.80;0.60;;;;;;;27.34;100.00;-21419.06;6277151;22;20761;-73
2021/09/26 10:04:12;;;;;;;0.80;0.77;;;;;;;26.83;100.00;-21405.41;6249779;22;20843;-72
2021/09/26 10:06:42;;;;;;;0.70;0.50;;;;;;;27.59;100.00;-21425.56;6277582;22;20836;-72
2021/09/26 10:09:20;;;;;;;0.70;0.50;;;;;;;27.13;100.00;-21413.53;6250704;22;20399;-73
2021/09/26 10:11:52;;;;;;;0.70;0.57;;;;;;;28.11;100.00;-21439.34;6279804;22;20746;-73
2021/09/26 10:14:20;;;;;;;0.80;0.60;;;;;;;28.92;100.00;-21460.66;6251193;22;20418;-73
2021/09/26 10:16:49;;;;;;;0.70;0.50;;;;;;;28.11;100.00;-21439.34;6250192;22;20390;-73
2021/09/26 10:19:20;;;;;;;0.70;0.50;;;;;;;28.50;100.00;-21449.72;6249596;22;20840;-73
2021/09/26 10:21:51;;;;;;;1.30;0.80;;;;;;;28.93;100.00;-21461.06;6276650;22;20414;-72
2021/09/26 10:24:22;;;;;;;0.80;0.50;;;;;;;28.47;100.00;-21448.78;6250727;22;20461;-72
2021/09/26 10:26:51;;;;;;;0.80;0.80;;;;;;;29.03;100.00;-21463.63;6250320;22;20411;-72
2021/09/26 10:29:20;;;;;;;1.60;1.30;;;;;;;29.18;100.00;-21467.66;6225231;22;20425;-73
2021/09/26 10:31:48;;;;;;;0.70;0.50;;;;;;;28.88;100.00;-21459.84;6250957;22;20685;-73
2021/09/26 10:34:18;;;;;;;0.70;0.50;;;;;;;29.20;100.00;-21468.06;6224513;22;20812;-72
2021/09/26 10:36:45;;;;;;;0.70;0.50;;;;;;;29.46;100.00;-21475.06;6276966;22;20757;-72
2021/09/26 10:39:14;;;;;;;0.70;0.50;;;;;;;29.01;100.00;-21463.06;6224741;22;20423;-72
2021/09/26 10:42:05;;;;;;;0.70;0.50;;;;;;;29.66;100.00;-21480.31;6249732;22;20371;-71
2021/09/26 10:44:36;;;;;;;0.70;0.50;;;;;;;29.50;100.00;-21476.00;6277288;22;20367;-72
2021/09/26 10:47:29;;;;;;;0.70;0.50;;;;;;;28.74;100.00;-21456.06;6250186;22;20406;-73
2021/09/26 10:50:12;;;;;;;1.30;1.20;;;;;;;29.72;100.00;-21481.81;6233980;22;20402;-73
2021/09/26 10:52:47;;;;;;;1.00;0.77;;;;;;;29.52;100.00;-21476.69;6228481;22;20765;-73
2021/09/26 10:55:29;;;;;;;1.07;0.97;;;;;;;29.73;100.00;-21482.22;6286985;22;20372;-72
2021/09/26 10:58:17;;;;;;;0.70;0.50;;;;;;;29.47;100.00;-21475.19;6282106;22;20841;-73
2021/09/26 11:00:55;;;;;;;0.77;0.57;;;;;;;29.06;100.00;-21464.44;6252561;22;20879;-73
2021/09/26 11:03:34;;;;;;;0.80;0.60;;;;;;;28.70;100.00;-21454.97;6277280;22;20371;-73
2021/09/26 11:06:22;;;;;;;0.70;0.60;;;;;;;28.62;100.00;-21452.81;6277644;22;20816;-73
2021/09/26 11:08:52;;;;;;;0.70;0.60;;;;;;;27.76;100.00;-21430.00;6277026;22;20407;-73
2021/09/26 11:11:37;;;;;;;0.70;0.50;;;;;;;27.14;100.00;-21413.66;6224284;22;20390;-72
2021/09/26 11:14:07;;;;;;;0.70;0.60;;;;;;;26.14;100.00;-21387.13;6250840;22;20505;-73
2021/09/26 11:16:56;;;;;;;0.70;0.60;;;;;;;25.75;100.00;-21376.97;6251963;22;20425;-72
2021/09/26 11:19:24;;;;;;;0.80;0.67;;;;;;;25.68;100.00;-21375.09;6253997;22;20363;-73
2021/09/26 11:21:55;;;;;;;0.80;0.60;;;;;;;25.41;100.00;-21367.91;6254926;22;20390;-72
2021/09/26 11:24:35;;;;;;;1.00;0.90;;;;;;;25.54;100.00;-21371.28;6254115;22;20403;-72
2021/09/26 11:27:11;;;;;;;1.17;1.07;;;;;;;25.15;100.00;-21360.84;6252654;22;20398;-71
2021/09/26 11:30:11;;;;;;;0.97;0.87;;;;;;;25.23;100.00;-21363.03;6281495;22;20370;-72
2021/09/26 11:32:39;;;;;;;0.80;0.70;;;;;;;25.12;100.00;-21360.03;6252714;22;20751;-73